createdAt,value
2022-08-28T00:05:02.481Z,327.92
2022-08-28T00:12:05.248Z,319.52
2022-08-28T00:19:06.846Z,319.50
2022-08-28T00:26:08.458Z,335.88
2022-08-28T00:33:20.997Z,453.33
2022-08-28T00:40:30.459Z,418.95
2022-08-28T00:47:34.984Z,396.65
2022-08-28T00:54:37.803Z,369.30
2022-08-28T01:01:39.512Z,346.58
2022-08-28T01:08:41.692Z,320.10
2022-08-28T01:15:43.396Z,325.75
2022-08-28T01:22:58.981Z,325.65
2022-08-28T01:30:03.619Z,323.60
2022-08-28T01:37:05.463Z,318.27
2022-08-28T01:44:07.251Z,343.00
2022-08-28T01:51:09.455Z,344.58
2022-08-28T01:58:11.182Z,340.80
2022-08-28T02:05:12.828Z,345.85
2022-08-28T02:12:14.600Z,372.50
2022-08-28T02:19:16.234Z,317.05
2022-08-28T02:26:17.990Z,305.90
2022-08-28T02:33:19.628Z,308.13
2022-08-28T02:40:22.370Z,314.15
2022-08-28T02:47:24.075Z,301.40
2022-08-28T02:54:26.390Z,307.88
2022-08-28T03:01:28.054Z,296.23
2022-08-28T03:08:30.066Z,316.92
2022-08-28T03:15:31.707Z,375.73
2022-08-28T03:22:56.578Z,318.73
2022-08-28T03:29:59.200Z,355.02
2022-08-28T03:37:01.197Z,393.75
2022-08-28T03:44:03.339Z,398.05
2022-08-28T03:51:09.283Z,425.27
2022-08-28T03:58:11.093Z,347.38
2022-08-28T04:12:22.257Z,324.70
2022-08-28T04:19:23.992Z,328.73
2022-08-28T04:26:26.426Z,332.88
2022-08-28T04:33:28.294Z,338.27
2022-08-28T04:40:30.095Z,400.33
2022-08-28T04:47:35.351Z,337.08
2022-08-28T04:54:36.991Z,288.38
2022-08-28T05:01:40.197Z,271.45
2022-08-28T05:08:42.158Z,317.40
2022-08-28T05:15:45.855Z,326.80
2022-08-28T05:22:47.712Z,339.10
2022-08-28T05:29:50.292Z,348.80
2022-08-28T05:36:51.893Z,286.77
2022-08-28T05:43:54.001Z,308.55
2022-08-28T05:50:57.754Z,287.35
2022-08-28T05:58:19.336Z,292.25
2022-08-28T06:05:21.040Z,304.55
2022-08-28T06:12:22.675Z,301.27
2022-08-28T06:19:25.126Z,295.50
2022-08-28T06:26:27.179Z,302.75
2022-08-28T06:33:28.831Z,301.35
2022-08-28T06:40:30.468Z,312.50
2022-08-28T06:47:32.131Z,322.25
2022-08-28T06:54:33.785Z,328.98
2022-08-28T07:01:36.476Z,325.70
2022-08-28T07:08:38.807Z,318.67
2022-08-28T07:15:41.924Z,321.63
2022-08-28T07:22:43.770Z,323.77
2022-08-28T07:29:45.392Z,332.77
2022-08-28T07:36:47.122Z,319.63
2022-08-28T07:44:07.411Z,315.88
2022-08-28T07:51:09.298Z,317.35
2022-08-28T07:58:11.238Z,317.88
2022-08-28T08:05:14.329Z,327.05
2022-08-28T08:12:16.272Z,335.90
2022-08-28T08:19:19.511Z,336.08
2022-08-28T08:26:22.874Z,328.55
2022-08-28T08:33:24.466Z,347.15
2022-08-28T08:40:26.212Z,357.42
2022-08-28T08:47:48.848Z,362.67
2022-08-28T08:55:06.037Z,420.95
2022-08-28T09:02:15.485Z,302.40
2022-08-28T09:09:30.870Z,291.35
2022-08-28T09:16:35.853Z,282.67
2022-08-28T09:23:37.467Z,281.02
2022-08-28T09:30:39.169Z,292.45
2022-08-28T09:37:41.590Z,311.08
2022-08-28T09:44:54.567Z,323.70
2022-08-28T09:51:59.420Z,301.80
2022-08-28T09:59:06.502Z,282.73
2022-08-28T10:06:25.126Z,281.98
2022-08-28T10:13:30.665Z,292.17
2022-08-28T10:21:13.723Z,302.38
2022-08-28T10:28:43.277Z,289.77
2022-08-28T10:43:25.475Z,300.93
2022-08-28T10:50:29.419Z,305.90
2022-08-28T10:57:49.380Z,321.30
2022-08-28T11:04:53.332Z,363.17
2022-08-28T11:12:02.535Z,332.92
2022-08-28T11:19:25.637Z,348.83
2022-08-28T11:26:54.648Z,378.17
2022-08-28T11:33:58.908Z,316.37
2022-08-28T11:41:17.556Z,296.90
2022-08-28T11:48:25.646Z,289.63
2022-08-28T11:55:30.923Z,292.42
2022-08-28T12:02:39.097Z,297.88
2022-08-28T12:09:45.362Z,295.55
2022-08-28T12:16:58.764Z,255.90
2022-08-28T12:24:07.159Z,287.08
2022-08-28T12:31:42.814Z,288.05
2022-08-28T12:38:51.100Z,284.65
2022-08-28T12:45:55.484Z,285.73
2022-08-28T12:52:59.879Z,279.73
2022-08-28T13:00:08.151Z,274.13
2022-08-28T13:07:15.664Z,315.38
2022-08-28T13:14:41.896Z,293.05
2022-08-28T13:21:46.396Z,282.05
2022-08-28T13:28:48.015Z,286.10
2022-08-28T13:35:54.774Z,287.23
2022-08-28T13:43:03.126Z,282.90
2022-08-28T13:50:06.166Z,281.17
2022-08-28T13:57:07.850Z,287.02
2022-08-28T14:04:09.791Z,231.23
2022-08-28T14:11:12.771Z,209.65
2022-08-28T14:18:14.761Z,213.55
2022-08-28T14:25:16.478Z,173.10
2022-08-28T14:32:18.397Z,121.45
2022-08-28T14:39:20.084Z,92.28
2022-08-28T14:46:28.444Z,55.60
2022-08-28T14:53:30.220Z,59.50
2022-08-28T15:00:31.847Z,48.70
2022-08-28T15:07:33.530Z,53.20
2022-08-28T15:14:35.825Z,68.05
2022-08-28T15:21:38.330Z,45.17
2022-08-28T15:28:39.993Z,44.80
2022-08-28T15:35:41.598Z,57.70
2022-08-28T15:42:43.941Z,58.75
2022-08-28T15:49:48.746Z,54.53
2022-08-28T15:56:53.768Z,52.95
2022-08-28T16:03:55.923Z,55.28
2022-08-28T16:10:57.604Z,69.80
2022-08-28T16:17:59.238Z,55.13
2022-08-28T16:25:00.876Z,48.65
2022-08-28T16:32:02.834Z,36.92
2022-08-28T16:39:04.701Z,45.33
2022-08-28T16:46:14.217Z,40.22
2022-08-28T16:53:15.923Z,51.28
2022-08-28T17:00:27.069Z,58.83
2022-08-28T17:07:29.080Z,83.18
2022-08-28T17:14:30.706Z,72.15
2022-08-28T17:21:50.774Z,89.43
2022-08-28T17:28:52.466Z,108.63
2022-08-28T17:35:59.656Z,238.07
2022-08-28T17:43:02.786Z,369.50
2022-08-28T17:50:05.800Z,443.98
2022-08-28T17:57:07.761Z,388.35
2022-08-28T18:04:09.552Z,367.10
2022-08-28T18:11:13.413Z,406.60
2022-08-28T18:18:15.307Z,351.80
2022-08-28T18:25:35.280Z,282.77
2022-08-28T18:32:37.039Z,282.30
2022-08-28T18:39:39.200Z,266.67
2022-08-28T18:46:41.459Z,271.05
2022-08-28T18:53:43.606Z,282.15
2022-08-28T19:00:45.261Z,291.70
2022-08-28T19:07:47.341Z,282.25
2022-08-28T19:14:53.157Z,281.17
2022-08-28T19:21:54.771Z,293.33
2022-08-28T19:28:56.860Z,293.70
2022-08-28T19:35:58.449Z,309.70
2022-08-28T19:43:00.681Z,290.63
2022-08-28T19:50:02.597Z,297.90
2022-08-28T19:57:05.213Z,307.50
2022-08-28T20:04:07.747Z,360.00
2022-08-28T20:11:09.716Z,425.90
2022-08-28T20:18:12.354Z,308.00
2022-08-28T20:25:14.816Z,298.48
2022-08-28T20:32:16.997Z,277.13
2022-08-28T20:39:18.996Z,256.25
2022-08-28T20:46:20.694Z,240.10
2022-08-28T20:53:36.988Z,231.73
2022-08-28T21:00:40.036Z,213.57
2022-08-28T21:07:41.721Z,266.55
2022-08-28T21:14:44.161Z,237.32
2022-08-28T21:28:54.884Z,280.58
2022-08-28T21:35:56.460Z,291.98
2022-08-28T21:42:58.119Z,239.77
2022-08-28T21:49:59.809Z,218.95
2022-08-28T21:57:01.426Z,221.45
2022-08-28T22:04:03.325Z,219.95
2022-08-28T22:11:04.962Z,221.95
2022-08-28T22:18:09.896Z,236.00
2022-08-28T22:25:11.506Z,246.75
2022-08-28T22:32:13.150Z,251.30
2022-08-28T22:39:14.783Z,279.50
2022-08-28T22:46:16.656Z,282.05
2022-08-28T22:53:18.392Z,266.48
2022-08-28T23:00:21.561Z,362.98
2022-08-28T23:07:23.187Z,266.33
2022-08-28T23:14:24.879Z,232.75
2022-08-28T23:21:29.022Z,236.05
2022-08-28T23:28:30.629Z,249.98
2022-08-28T23:35:32.209Z,266.38
2022-08-28T23:42:34.767Z,305.73
2022-08-28T23:49:42.626Z,312.23
2022-08-28T23:56:44.623Z,379.52
